Dallas, TX

01:07 CDT le 29 Mars 2015 (GMT -0500)
Deep Ellum | | Change Station
CLOSE
Current Station
Stations météorologiques personnelles
Location: Dallas, TX
Altitude: 489 ft
Stations météo à proximité

Alt. 489 ft 32.78 °N, 96.78 °W | Updated 11 seconds ago

Ciel dégagé
Ciel dégagé
66.4 ° F
Paraît 66.4 ° F
N
1.3
Vent Variable Vent de SE
Gusts 2.5 mph

Aujourd'hui
Haut(e) -- | Bas -- ° F
--% Risque de précip.
Hier
Haut(e) -- | Bas -- ° F
Precip. -- pouce
7:19 AM 7:45 PM
Lune gibbeuse croissante, 69% visible
Pression 30.00 pouce
Visibilité 10.0 Miles terrestres
Nuages Ciel dégagé
Point de rosée 48 ° F
Humidité 52%
Précipitations 0.00 pouce
Profondeur de la couche neigeuse Non disponible.
UV 0.0 sur 12
Pollen 10.90 sur 12
Qualité de l'air Non disponible.
Flu Activity Non disponible.
METAR KDAL 290553Z 14009KT 10SM CLR 19/07 A3001 RMK AO2 SLP158 T01940072 10272 20194 402830089 53005

More Conditions Fewer Conditions

Pression 30.00 pouce
Visibilité 10.0 Miles terrestres
Nuages Ciel dégagé
Point de rosée 48 ° F
Humidité 52%
Précipitations 0.00 pouce
Profondeur de la couche neigeuse Non disponible.
UV 0.0 sur 12
Pollen 10.90 sur 12
Qualité de l'air Non disponible.
Flu Activity Non disponible.
METAR KDAL 290553Z 14009KT 10SM CLR 19/07 A3001 RMK AO2 SLP158 T01940072 10272 20194 402830089 53005

More Conditions Fewer Conditions

10-Day Weather Forecast

Almanac

Astronomie

Mar. 29, 2015 Lever Coucher
Temps réel
Crépuscule civil
Crépuscule nautique
Crépuscule astronomique
Lune
Durée de lumière visible
Longueur du jour
Tomorrow will be .
, % of the Moon is Illuminated

Extrêmes aujourd'hui

State Highs State Lows

Community

WunderPhotos

Upload Photos

1,809,186 Photos téléchargées !

WunderBlogs® & News

Nearby

Qualité de l'air

  Qualité de l'air Indice de la qualité de l'air Polluant
Not available.

Épaisseur de neige

Station Depth Altitude

Activité sismique

Ville Distance Mag. Time & Date
Minimum magnitude displayed is 2.5.

Températures des eaux côtières

Lieu Température

Stations

Stations météo à proximité

Emplacement de la station Température Refroidissement éolien Point de rosée Humidité Vent Precip. Alt. Mise à jour Type